Time;durP1;ratioP1;P1;durP2;ratioP2;P2;SDS_P1;SDS_P2;PMS_P1;PMS_P2;Temp;Humidity;BMP_temperature;BMP_pressure;BME280_temperature;BME280_humidity;BME280_pressure;Samples;Min_cycle;Max_cycle;Signal;HPM_P1;HPM_P2
2023/09/07 00:02:11;;;;;;;14.98;7.90;;;;;;;;;;5033815;28;20033;-73
2023/09/07 00:04:37;;;;;;;18.27;10.18;;;;;;;;;;5032036;28;20025;-73
2023/09/07 00:07:02;;;;;;;17.83;9.38;;;;;;;;;;5016038;28;20479;-73
2023/09/07 00:09:27;;;;;;;22.70;10.48;;;;;;;;;;5049098;28;20029;-73
2023/09/07 00:11:53;;;;;;;18.95;9.75;;;;;;;;;;5032648;28;20501;-73
2023/09/07 00:14:18;;;;;;;17.55;9.80;;;;;;;;;;5032035;28;20394;-73
2023/09/07 00:16:43;;;;;;;21.17;10.82;;;;;;;;;;5048984;28;20036;-73
2023/09/07 00:19:09;;;;;;;21.10;10.50;;;;;;;;;;5049183;28;20168;-73
2023/09/07 00:21:34;;;;;;;20.58;10.00;;;;;;;;;;5048918;28;20108;-73
2023/09/07 00:24:04;;;;;;;21.23;10.32;;;;;;;;;;5048508;28;20037;-73
2023/09/07 00:26:29;;;;;;;26.15;11.35;;;;;;;;;;5048333;28;20032;-73
2023/09/07 00:28:54;;;;;;;20.92;10.73;;;;;;;;;;5015920;28;20029;-73
2023/09/07 00:31:20;;;;;;;19.80;9.93;;;;;;;;;;5033583;28;20025;-73
2023/09/07 00:33:45;;;;;;;22.98;12.73;;;;;;;;;;5015296;28;20071;-73
2023/09/07 00:36:10;;;;;;;24.98;10.35;;;;;;;;;;5031923;28;20084;-73
2023/09/07 00:38:36;;;;;;;23.15;11.90;;;;;;;;;;5033415;28;20032;-73
2023/09/07 00:41:01;;;;;;;19.30;8.93;;;;;;;;;;5033310;28;20032;-73
2023/09/07 00:43:26;;;;;;;21.17;10.52;;;;;;;;;;5032547;28;20026;-74
2023/09/07 00:45:52;;;;;;;17.02;8.77;;;;;;;;;;5035818;28;20079;-73
2023/09/07 00:48:17;;;;;;;17.75;9.65;;;;;;;;;;5052264;28;20534;-73
2023/09/07 00:50:43;;;;;;;17.70;9.75;;;;;;;;;;5052633;28;20087;-73
2023/09/07 00:53:08;;;;;;;15.15;8.43;;;;;;;;;;5035931;28;20075;-73
2023/09/07 00:55:34;;;;;;;14.82;9.23;;;;;;;;;;5052471;28;20462;-73
2023/09/07 00:58:01;;;;;;;14.18;8.30;;;;;;;;;;5052369;28;20029;-73
2023/09/07 01:00:26;;;;;;;16.98;8.48;;;;;;;;;;5036798;28;20021;-73
2023/09/07 01:02:52;;;;;;;16.63;8.63;;;;;;;;;;5052444;28;20029;-73
2023/09/07 01:05:17;;;;;;;18.20;8.90;;;;;;;;;;5036993;28;20029;-73
2023/09/07 01:07:47;;;;;;;15.25;8.70;;;;;;;;;;5036932;28;20072;-73
2023/09/07 01:10:13;;;;;;;19.35;11.23;;;;;;;;;;5035203;28;20033;-73
2023/09/07 01:12:39;;;;;;;15.93;9.25;;;;;;;;;;5035696;28;20025;-73
2023/09/07 01:15:05;;;;;;;14.82;8.40;;;;;;;;;;5052434;28;20079;-73
2023/09/07 01:17:32;;;;;;;14.55;9.18;;;;;;;;;;5052233;28;20100;-73
2023/09/07 01:19:59;;;;;;;16.10;8.15;;;;;;;;;;5051579;28;20026;-73
2023/09/07 01:22:24;;;;;;;15.35;8.63;;;;;;;;;;5052273;28;20108;-73
2023/09/07 01:24:51;;;;;;;18.92;9.98;;;;;;;;;;5052096;28;20060;-73
2023/09/07 01:27:16;;;;;;;16.08;9.35;;;;;;;;;;5052020;28;20494;-74
2023/09/07 01:29:41;;;;;;;14.73;8.25;;;;;;;;;;5052171;28;20109;-73
2023/09/07 01:32:09;;;;;;;13.43;8.02;;;;;;;;;;5052327;28;20053;-73
2023/09/07 01:34:35;;;;;;;14.82;7.93;;;;;;;;;;5035961;28;20491;-74
2023/09/07 01:37:00;;;;;;;12.63;7.00;;;;;;;;;;5051779;28;20125;-73
2023/09/07 01:39:26;;;;;;;12.52;6.35;;;;;;;;;;5035134;28;20021;-73
2023/09/07 01:41:51;;;;;;;11.38;7.35;;;;;;;;;;5036379;28;20032;-73
2023/09/07 01:44:16;;;;;;;10.32;5.60;;;;;;;;;;5036716;28;20025;-73
2023/09/07 01:46:42;;;;;;;11.05;6.80;;;;;;;;;;5051658;28;20490;-73
2023/09/07 01:49:07;;;;;;;11.77;6.32;;;;;;;;;;5036401;28;20033;-73
2023/09/07 01:51:33;;;;;;;11.50;6.30;;;;;;;;;;5036210;28;20025;-73
2023/09/07 01:53:58;;;;;;;12.35;7.15;;;;;;;;;;5036236;28;20021;-73
2023/09/07 01:56:23;;;;;;;11.45;6.18;;;;;;;;;;5033738;28;20033;-74
2023/09/07 01:58:49;;;;;;;19.75;9.63;;;;;;;;;;5036439;28;20087;-73
2023/09/07 02:01:24;;;;;;;12.00;7.45;;;;;;;;;;5034684;28;20121;-73
2023/09/07 02:03:49;;;;;;;13.80;8.43;;;;;;;;;;5034663;28;20487;-73
2023/09/07 02:06:15;;;;;;;14.70;7.82;;;;;;;;;;5051366;28;20029;-74
2023/09/07 02:08:40;;;;;;;13.30;7.57;;;;;;;;;;5035838;28;20022;-73
2023/09/07 02:11:05;;;;;;;12.38;8.23;;;;;;;;;;5035346;28;20378;-73
2023/09/07 02:13:31;;;;;;;15.93;9.15;;;;;;;;;;5051216;28;20021;-73
2023/09/07 02:15:56;;;;;;;14.90;8.13;;;;;;;;;;5035641;28;20041;-73
2023/09/07 02:18:21;;;;;;;12.50;7.78;;;;;;;;;;5034047;28;20029;-73
2023/09/07 02:20:47;;;;;;;12.02;7.38;;;;;;;;;;5034356;28;20026;-73
2023/09/07 02:23:12;;;;;;;20.73;9.85;;;;;;;;;;5051193;28;20025;-73
2023/09/07 02:25:37;;;;;;;17.50;8.40;;;;;;;;;;5034391;28;20021;-73
2023/09/07 02:28:03;;;;;;;12.35;7.53;;;;;;;;;;5035840;28;20021;-73
2023/09/07 02:30:28;;;;;;;9.65;6.20;;;;;;;;;;5050985;28;20096;-73
2023/09/07 02:32:53;;;;;;;12.13;6.78;;;;;;;;;;5050500;28;20540;-74
2023/09/07 02:35:19;;;;;;;16.15;8.68;;;;;;;;;;5050780;28;20040;-73
2023/09/07 02:37:44;;;;;;;13.18;7.90;;;;;;;;;;5034476;28;20033;-73
2023/09/07 02:40:10;;;;;;;13.63;7.63;;;;;;;;;;5035511;28;20033;-73
2023/09/07 02:42:35;;;;;;;13.80;7.45;;;;;;;;;;5050826;28;20060;-73
2023/09/07 02:45:00;;;;;;;11.20;6.75;;;;;;;;;;5050104;28;20021;-73
2023/09/07 02:47:25;;;;;;;11.98;6.60;;;;;;;;;;5051242;28;20033;-73
2023/09/07 02:49:51;;;;;;;14.05;7.07;;;;;;;;;;5033836;28;20112;-73
2023/09/07 02:52:16;;;;;;;12.05;7.43;;;;;;;;;;5035315;28;20364;-73
2023/09/07 02:54:41;;;;;;;10.80;6.10;;;;;;;;;;5050075;28;20493;-73
2023/09/07 02:57:07;;;;;;;9.48;6.15;;;;;;;;;;5050338;28;20022;-73
2023/09/07 02:59:32;;;;;;;10.60;6.20;;;;;;;;;;5050408;28;20017;-73
2023/09/07 03:01:57;;;;;;;12.57;6.95;;;;;;;;;;5035045;28;20017;-73
2023/09/07 03:04:23;;;;;;;10.32;6.22;;;;;;;;;;5035316;28;20474;-73
2023/09/07 03:06:48;;;;;;;11.60;6.55;;;;;;;;;;5033986;28;20025;-73
2023/09/07 03:09:14;;;;;;;11.45;6.75;;;;;;;;;;5050496;28;20423;-73
2023/09/07 03:11:39;;;;;;;14.23;7.82;;;;;;;;;;5034847;28;20025;-73
2023/09/07 03:14:04;;;;;;;10.85;6.55;;;;;;;;;;5050139;28;20067;-73
2023/09/07 03:16:30;;;;;;;14.48;6.50;;;;;;;;;;5049513;28;20021;-73
2023/09/07 03:18:55;;;;;;;12.50;7.00;;;;;;;;;;5034914;28;20452;-73
2023/09/07 03:21:25;;;;;;;11.55;5.85;;;;;;;;;;5034394;28;20080;-73
2023/09/07 03:23:50;;;;;;;9.93;5.80;;;;;;;;;;5038068;28;20037;-74
2023/09/07 03:26:15;;;;;;;11.38;6.45;;;;;;;;;;5032883;28;20029;-73
2023/09/07 03:28:41;;;;;;;12.73;6.70;;;;;;;;;;5025584;28;20026;-73
2023/09/07 03:31:06;;;;;;;16.48;8.25;;;;;;;;;;5013687;28;20076;-73
2023/09/07 03:33:31;;;;;;;10.27;6.72;;;;;;;;;;5014456;28;20068;-73
2023/09/07 03:35:58;;;;;;;12.38;6.50;;;;;;;;;;5013295;28;20026;-73
2023/09/07 03:38:24;;;;;;;14.05;7.88;;;;;;;;;;5014092;28;20022;-73
2023/09/07 03:40:49;;;;;;;10.73;5.95;;;;;;;;;;5014584;28;20056;-73
2023/09/07 03:43:14;;;;;;;15.05;7.68;;;;;;;;;;5013327;28;20069;-73
2023/09/07 03:45:40;;;;;;;11.38;6.72;;;;;;;;;;5013197;28;20033;-73
2023/09/07 03:48:05;;;;;;;12.15;6.57;;;;;;;;;;5029429;28;20026;-74
2023/09/07 03:50:30;;;;;;;11.88;6.65;;;;;;;;;;5013770;28;20073;-74
2023/09/07 03:52:56;;;;;;;9.35;6.47;;;;;;;;;;5014289;28;20100;-73
2023/09/07 03:55:21;;;;;;;10.40;5.78;;;;;;;;;;5013011;28;20506;-73
2023/09/07 03:57:46;;;;;;;10.75;5.55;;;;;;;;;;5014269;28;20446;-73
2023/09/07 04:00:12;;;;;;;18.50;7.38;;;;;;;;;;5014228;28;20037;-73
2023/09/07 04:02:37;;;;;;;16.15;7.68;;;;;;;;;;5012776;28;20033;-73
2023/09/07 04:05:04;;;;;;;12.55;7.07;;;;;;;;;;5012713;28;20029;-73
2023/09/07 04:07:30;;;;;;;9.45;6.28;;;;;;;;;;5012888;28;20026;-73
2023/09/07 04:09:56;;;;;;;11.27;6.07;;;;;;;;;;4996503;28;20029;-73
2023/09/07 04:12:21;;;;;;;10.70;6.13;;;;;;;;;;5014066;28;20072;-73
2023/09/07 04:14:46;;;;;;;12.50;6.80;;;;;;;;;;5013994;28;20431;-73
2023/09/07 04:17:12;;;;;;;10.65;6.55;;;;;;;;;;5012406;28;20483;-73
2023/09/07 04:19:37;;;;;;;10.90;6.38;;;;;;;;;;5012761;28;20030;-73
2023/09/07 04:22:03;;;;;;;12.90;7.00;;;;;;;;;;5014275;28;20471;-73
2023/09/07 04:24:28;;;;;;;12.02;6.68;;;;;;;;;;5012174;28;20054;-73
2023/09/07 04:26:58;;;;;;;10.95;6.30;;;;;;;;;;5012796;28;20018;-73
2023/09/07 04:29:24;;;;;;;15.50;7.65;;;;;;;;;;5013009;28;20032;-73
2023/09/07 04:31:49;;;;;;;11.95;7.57;;;;;;;;;;5013090;28;20029;-73
2023/09/07 04:34:15;;;;;;;10.43;6.35;;;;;;;;;;5012742;28;20091;-73
2023/09/07 04:36:40;;;;;;;12.32;7.55;;;;;;;;;;5011655;28;20045;-74
2023/09/07 04:39:05;;;;;;;11.82;6.80;;;;;;;;;;5012377;28;20026;-73
2023/09/07 04:41:31;;;;;;;13.27;6.55;;;;;;;;;;5013848;28;20030;-73
2023/09/07 04:43:57;;;;;;;14.23;7.80;;;;;;;;;;4995977;28;20038;-73
2023/09/07 04:46:23;;;;;;;11.00;7.35;;;;;;;;;;5013600;28;20426;-73
2023/09/07 04:48:48;;;;;;;10.98;5.53;;;;;;;;;;5013594;28;20022;-74
2023/09/07 04:51:13;;;;;;;12.80;6.63;;;;;;;;;;5028255;28;20145;-74
2023/09/07 04:53:39;;;;;;;13.50;6.57;;;;;;;;;;5012400;28;20072;-73
2023/09/07 04:56:06;;;;;;;15.25;8.82;;;;;;;;;;5045325;28;20388;-73
2023/09/07 04:58:31;;;;;;;15.15;7.63;;;;;;;;;;5011811;28;20053;-74
2023/09/07 05:01:08;;;;;;;12.82;7.43;;;;;;;;;;5012495;28;20052;-73
2023/09/07 05:03:34;;;;;;;9.77;5.78;;;;;;;;;;5012518;28;20045;-73
2023/09/07 05:05:59;;;;;;;13.05;7.15;;;;;;;;;;5012324;28;20175;-73
2023/09/07 05:08:25;;;;;;;13.35;6.65;;;;;;;;;;5013433;28;20021;-73
2023/09/07 05:10:58;;;;;;;12.60;7.00;;;;;;;;;;5013383;28;20072;-73
2023/09/07 05:13:24;;;;;;;15.88;8.07;;;;;;;;;;5011606;28;20022;-74
2023/09/07 05:15:50;;;;;;;14.40;8.38;;;;;;;;;;5012244;28;20038;-73
2023/09/07 05:18:16;;;;;;;19.45;10.90;;;;;;;;;;5013375;28;20479;-73
2023/09/07 05:20:41;;;;;;;21.67;11.50;;;;;;;;;;5013250;28;20041;-73
2023/09/07 05:23:07;;;;;;;26.60;13.75;;;;;;;;;;5012211;28;20026;-74
2023/09/07 05:25:32;;;;;;;24.00;11.18;;;;;;;;;;5013275;28;20065;-74
2023/09/07 05:27:57;;;;;;;27.63;13.10;;;;;;;;;;5011852;28;20049;-73
2023/09/07 05:30:23;;;;;;;26.92;13.60;;;;;;;;;;5014894;28;20081;-74
2023/09/07 05:32:48;;;;;;;27.65;13.88;;;;;;;;;;5015739;28;20021;-73
2023/09/07 05:35:16;;;;;;;31.10;15.02;;;;;;;;;;5016792;28;20030;-74
2023/09/07 05:37:41;;;;;;;25.13;13.02;;;;;;;;;;5015630;28;20032;-73
2023/09/07 05:40:07;;;;;;;33.47;14.93;;;;;;;;;;5016745;28;20014;-73
2023/09/07 05:42:34;;;;;;;32.75;13.93;;;;;;;;;;5015440;28;20095;-73
2023/09/07 05:45:00;;;;;;;31.67;14.77;;;;;;;;;;5015589;28;20056;-72
2023/09/07 05:47:26;;;;;;;29.02;13.77;;;;;;;;;;5015523;28;20026;-72
2023/09/07 05:49:51;;;;;;;43.67;16.95;;;;;;;;;;5016416;28;20555;-73
2023/09/07 05:52:16;;;;;;;35.22;15.52;;;;;;;;;;4999579;28;20053;-74
2023/09/07 05:54:42;;;;;;;38.13;16.65;;;;;;;;;;5017135;28;20026;-74
2023/09/07 05:57:07;;;;;;;34.70;16.48;;;;;;;;;;5015509;28;20116;-74
2023/09/07 05:59:33;;;;;;;51.33;19.00;;;;;;;;;;5015294;28;20049;-74
2023/09/07 06:01:58;;;;;;;38.53;16.45;;;;;;;;;;5015412;28;20104;-74
2023/09/07 06:04:23;;;;;;;36.28;17.70;;;;;;;;;;5016352;28;20408;-74
2023/09/07 06:06:48;;;;;;;45.72;19.85;;;;;;;;;;4998663;28;20377;-75
2023/09/07 06:09:14;;;;;;;53.85;20.30;;;;;;;;;;5014936;28;20542;-73
2023/09/07 06:11:39;;;;;;;50.55;20.20;;;;;;;;;;5015897;28;20021;-73
2023/09/07 06:14:04;;;;;;;54.13;20.10;;;;;;;;;;5014938;28;20505;-73
2023/09/07 06:16:30;;;;;;;45.15;20.38;;;;;;;;;;5014835;28;20034;-73
2023/09/07 06:18:55;;;;;;;49.40;21.15;;;;;;;;;;5015393;28;20037;-73
2023/09/07 06:21:20;;;;;;;49.63;20.45;;;;;;;;;;5015282;28;20022;-73
2023/09/07 06:23:45;;;;;;;43.08;17.58;;;;;;;;;;5014584;28;20026;-74
2023/09/07 06:26:11;;;;;;;47.15;23.17;;;;;;;;;;5015562;28;20022;-74
2023/09/07 06:28:36;;;;;;;55.45;23.08;;;;;;;;;;5014552;28;20404;-74
2023/09/07 06:31:01;;;;;;;48.22;21.02;;;;;;;;;;5016199;28;20090;-74
2023/09/07 06:33:27;;;;;;;48.92;20.52;;;;;;;;;;5014049;28;20057;-72
2023/09/07 06:35:57;;;;;;;52.72;23.10;;;;;;;;;;5015285;28;20026;-71
2023/09/07 06:38:22;;;;;;;49.13;20.25;;;;;;;;;;5014759;28;20084;-71
2023/09/07 06:40:49;;;;;;;50.95;21.75;;;;;;;;;;5015837;28;20014;-71
2023/09/07 06:43:14;;;;;;;48.83;22.10;;;;;;;;;;5014708;28;20025;-71
2023/09/07 06:45:39;;;;;;;48.72;22.05;;;;;;;;;;5015206;28;20040;-72
2023/09/07 06:48:05;;;;;;;53.25;23.55;;;;;;;;;;5022083;28;20037;-72
2023/09/07 06:50:30;;;;;;;38.58;20.25;;;;;;;;;;5026465;28;20022;-72
2023/09/07 06:52:55;;;;;;;50.25;23.17;;;;;;;;;;5060705;28;20395;-72
2023/09/07 06:55:21;;;;;;;45.17;23.48;;;;;;;;;;5018582;28;20068;-72
2023/09/07 06:57:46;;;;;;;45.58;20.90;;;;;;;;;;5034840;28;20394;-73
2023/09/07 07:00:13;;;;;;;50.30;22.15;;;;;;;;;;5034989;28;20055;-75
2023/09/07 07:02:38;;;;;;;47.90;22.98;;;;;;;;;;5050591;28;20104;-74
2023/09/07 07:05:04;;;;;;;45.38;22.88;;;;;;;;;;5050250;28;20030;-73
2023/09/07 07:07:30;;;;;;;52.90;25.20;;;;;;;;;;5034670;28;20029;-74
2023/09/07 07:09:55;;;;;;;39.08;21.10;;;;;;;;;;5050646;28;20038;-73
2023/09/07 07:12:20;;;;;;;40.35;21.48;;;;;;;;;;5049184;28;20037;-74
2023/09/07 07:14:46;;;;;;;40.20;22.25;;;;;;;;;;5053108;28;20040;-73
2023/09/07 07:17:11;;;;;;;40.83;20.65;;;;;;;;;;5054682;28;20025;-73
2023/09/07 07:19:36;;;;;;;38.33;19.33;;;;;;;;;;5051630;28;20049;-73
2023/09/07 07:22:02;;;;;;;41.13;20.10;;;;;;;;;;5053842;28;20048;-73
2023/09/07 07:24:28;;;;;;;33.90;18.42;;;;;;;;;;5052607;28;20457;-73
2023/09/07 07:26:53;;;;;;;30.63;16.92;;;;;;;;;;5052951;28;20086;-75
2023/09/07 07:29:18;;;;;;;31.80;17.73;;;;;;;;;;5051378;28;20372;-75
2023/09/07 07:31:44;;;;;;;26.85;15.13;;;;;;;;;;5054811;28;20020;-75
2023/09/07 07:34:09;;;;;;;30.10;15.63;;;;;;;;;;5053117;28;20024;-73
2023/09/07 07:36:35;;;;;;;27.98;16.42;;;;;;;;;;5053023;28;20471;-73
2023/09/07 07:39:00;;;;;;;34.42;18.70;;;;;;;;;;5052601;28;20375;-74
2023/09/07 07:41:26;;;;;;;30.45;15.80;;;;;;;;;;5054507;28;20025;-74
2023/09/07 07:43:51;;;;;;;19.63;12.77;;;;;;;;;;5053995;28;20025;-74
2023/09/07 07:46:18;;;;;;;24.45;13.77;;;;;;;;;;5054226;28;20031;-74
2023/09/07 07:48:45;;;;;;;19.85;13.35;;;;;;;;;;5054657;28;20021;-74
2023/09/07 07:51:10;;;;;;;20.20;10.85;;;;;;;;;;5052851;28;20025;-74
2023/09/07 07:53:35;;;;;;;24.65;13.25;;;;;;;;;;5051885;28;20108;-74
2023/09/07 07:56:01;;;;;;;19.48;10.95;;;;;;;;;;5048882;28;20049;-74
2023/09/07 07:58:26;;;;;;;18.33;11.70;;;;;;;;;;5034371;28;20021;-74
2023/09/07 08:00:51;;;;;;;17.98;11.57;;;;;;;;;;5033492;28;20494;-73
2023/09/07 08:03:17;;;;;;;18.85;10.63;;;;;;;;;;5034362;28;20021;-74
2023/09/07 08:05:42;;;;;;;16.40;10.55;;;;;;;;;;5033850;28;20025;-74
2023/09/07 08:08:10;;;;;;;14.45;9.05;;;;;;;;;;5033007;28;20026;-75
2023/09/07 08:10:37;;;;;;;13.85;9.02;;;;;;;;;;5033216;28;20017;-73
2023/09/07 08:13:03;;;;;;;14.02;8.35;;;;;;;;;;5053176;28;20025;-74
2023/09/07 08:15:28;;;;;;;15.20;9.70;;;;;;;;;;5052638;28;20024;-74
2023/09/07 08:17:54;;;;;;;10.70;7.38;;;;;;;;;;5053752;28;20474;-74
2023/09/07 08:20:19;;;;;;;14.85;8.77;;;;;;;;;;5053794;28;20028;-75
2023/09/07 08:22:45;;;;;;;13.20;8.05;;;;;;;;;;5035859;28;20088;-74
2023/09/07 08:25:14;;;;;;;13.00;8.15;;;;;;;;;;5053385;28;20029;-73
2023/09/07 08:27:44;;;;;;;13.57;8.80;;;;;;;;;;5052306;28;20490;-73
2023/09/07 08:30:11;;;;;;;17.08;9.18;;;;;;;;;;5053827;28;20100;-73
2023/09/07 08:32:37;;;;;;;12.32;8.95;;;;;;;;;;5052598;28;20100;-73
2023/09/07 08:35:06;;;;;;;12.55;7.80;;;;;;;;;;5052739;28;20127;-74
2023/09/07 08:37:33;;;;;;;14.63;8.88;;;;;;;;;;5053311;28;20048;-74
2023/09/07 08:39:59;;;;;;;14.35;8.10;;;;;;;;;;5051613;28;20490;-74
2023/09/07 08:42:24;;;;;;;13.40;7.97;;;;;;;;;;5052557;28;20025;-74
2023/09/07 08:44:51;;;;;;;11.95;8.18;;;;;;;;;;5053418;28;20039;-74
2023/09/07 08:47:17;;;;;;;12.32;8.02;;;;;;;;;;5035074;28;20112;-74
2023/09/07 08:49:45;;;;;;;13.15;8.90;;;;;;;;;;5052446;28;20082;-74
2023/09/07 08:52:10;;;;;;;13.10;8.68;;;;;;;;;;5052364;28;20371;-74
2023/09/07 08:54:35;;;;;;;10.65;7.35;;;;;;;;;;5035870;28;20072;-74
2023/09/07 08:57:03;;;;;;;11.07;7.47;;;;;;;;;;5052231;28;20020;-73
2023/09/07 08:59:30;;;;;;;13.40;7.30;;;;;;;;;;5053364;28;20078;-74
2023/09/07 09:01:58;;;;;;;12.23;6.85;;;;;;;;;;5052335;28;20048;-73
2023/09/07 09:04:25;;;;;;;12.13;7.60;;;;;;;;;;5052228;28;20112;-74
2023/09/07 09:06:52;;;;;;;10.57;6.47;;;;;;;;;;5045958;28;20052;-73
2023/09/07 09:09:24;;;;;;;13.65;7.80;;;;;;;;;;5056296;28;20099;-74
2023/09/07 09:11:50;;;;;;;12.38;6.78;;;;;;;;;;5056230;28;20074;-74
2023/09/07 09:14:18;;;;;;;11.68;7.13;;;;;;;;;;5055993;28;20020;-73
2023/09/07 09:16:51;;;;;;;11.77;6.80;;;;;;;;;;5055377;28;20025;-74
2023/09/07 09:19:17;;;;;;;10.50;7.05;;;;;;;;;;5056114;28;20025;-73
2023/09/07 09:21:44;;;;;;;11.77;7.60;;;;;;;;;;5055989;28;20029;-74
2023/09/07 09:24:10;;;;;;;11.85;7.50;;;;;;;;;;5055875;28;20021;-73
2023/09/07 09:26:39;;;;;;;11.00;6.60;;;;;;;;;;5055417;28;20402;-73
2023/09/07 09:29:04;;;;;;;10.82;7.03;;;;;;;;;;5055457;28;20021;-74
2023/09/07 09:31:30;;;;;;;12.25;7.13;;;;;;;;;;5057084;28;20032;-74
2023/09/07 09:33:56;;;;;;;14.20;7.38;;;;;;;;;;5055451;28;20052;-73
2023/09/07 09:36:21;;;;;;;8.93;6.30;;;;;;;;;;5056014;28;20521;-74
2023/09/07 09:38:49;;;;;;;13.73;8.75;;;;;;;;;;5055266;28;20379;-74
2023/09/07 09:41:16;;;;;;;10.75;6.85;;;;;;;;;;5055557;28;20028;-74
2023/09/07 09:43:41;;;;;;;10.43;6.32;;;;;;;;;;5055465;28;20044;-74
2023/09/07 09:46:07;;;;;;;10.48;6.68;;;;;;;;;;5055525;28;20471;-74
2023/09/07 09:48:33;;;;;;;10.68;6.60;;;;;;;;;;5056142;28;20065;-74
2023/09/07 09:50:59;;;;;;;9.52;7.07;;;;;;;;;;5055549;28;20471;-73
2023/09/07 09:53:27;;;;;;;10.32;6.40;;;;;;;;;;5046017;28;20057;-74
2023/09/07 09:55:52;;;;;;;11.07;6.03;;;;;;;;;;5051723;28;20017;-73
2023/09/07 09:58:18;;;;;;;8.68;6.40;;;;;;;;;;5036616;28;20116;-74
2023/09/07 10:00:45;;;;;;;10.13;6.63;;;;;;;;;;5034822;28;20032;-73
2023/09/07 10:03:17;;;;;;;10.25;6.53;;;;;;;;;;5045433;28;20025;-74
2023/09/07 10:05:45;;;;;;;11.77;7.15;;;;;;;;;;5071716;28;20100;-74
2023/09/07 10:08:15;;;;;;;10.57;6.80;;;;;;;;;;5070875;28;20025;-73
2023/09/07 10:10:42;;;;;;;10.15;7.03;;;;;;;;;;5071851;28;20099;-73
2023/09/07 10:13:08;;;;;;;12.90;6.63;;;;;;;;;;5071616;28;20086;-73
2023/09/07 10:15:35;;;;;;;9.15;6.53;;;;;;;;;;5071005;28;20028;-73
2023/09/07 10:18:08;;;;;;;9.52;6.43;;;;;;;;;;5056042;28;20104;-73
2023/09/07 10:20:58;;;;;;;10.35;6.40;;;;;;;;;;5055772;28;20554;-73
2023/09/07 10:23:35;;;;;;;11.32;7.03;;;;;;;;;;5071317;28;20374;-74
2023/09/07 10:26:00;;;;;;;14.43;7.18;;;;;;;;;;5071405;28;20067;-73
2023/09/07 10:28:25;;;;;;;11.43;8.40;;;;;;;;;;5071723;28;20064;-74
2023/09/07 10:31:03;;;;;;;9.57;6.65;;;;;;;;;;5071472;28;20028;-73
2023/09/07 10:33:29;;;;;;;10.75;6.75;;;;;;;;;;5054718;28;20035;-73
2023/09/07 10:35:54;;;;;;;12.38;7.75;;;;;;;;;;5070961;28;20032;-74
2023/09/07 10:38:19;;;;;;;13.38;7.53;;;;;;;;;;5055360;28;20035;-74
2023/09/07 10:40:48;;;;;;;12.90;8.23;;;;;;;;;;5056327;28;20025;-72
2023/09/07 10:43:14;;;;;;;12.35;8.10;;;;;;;;;;5056976;28;20025;-73
2023/09/07 10:45:39;;;;;;;10.07;6.88;;;;;;;;;;5055438;28;20025;-73
2023/09/07 10:48:06;;;;;;;11.25;7.22;;;;;;;;;;5055303;28;20032;-73
2023/09/07 10:50:42;;;;;;;13.88;7.18;;;;;;;;;;5071231;28;20023;-74
2023/09/07 10:53:07;;;;;;;11.20;7.53;;;;;;;;;;5054324;28;20032;-73
2023/09/07 10:55:38;;;;;;;12.48;7.47;;;;;;;;;;5070966;28;20025;-73
2023/09/07 10:58:03;;;;;;;13.52;7.60;;;;;;;;;;5070004;28;20020;-72
2023/09/07 11:00:29;;;;;;;9.43;7.38;;;;;;;;;;5054100;28;20024;-74
2023/09/07 11:02:54;;;;;;;9.90;7.32;;;;;;;;;;5055486;28;20032;-74
2023/09/07 11:05:20;;;;;;;12.70;7.97;;;;;;;;;;5054110;28;20029;-74
2023/09/07 11:07:45;;;;;;;12.45;8.13;;;;;;;;;;5053978;28;20120;-74
2023/09/07 11:10:10;;;;;;;11.18;6.82;;;;;;;;;;5054836;28;20029;-74
2023/09/07 11:12:37;;;;;;;10.30;7.93;;;;;;;;;;5053955;28;20074;-76
2023/09/07 11:15:04;;;;;;;13.43;6.80;;;;;;;;;;5054935;28;20025;-75
2023/09/07 11:17:29;;;;;;;10.20;6.68;;;;;;;;;;5053661;28;20494;-75
2023/09/07 11:19:55;;;;;;;10.50;7.15;;;;;;;;;;5053880;28;20055;-75
2023/09/07 11:22:20;;;;;;;12.43;8.50;;;;;;;;;;5054354;28;20045;-75
2023/09/07 11:24:46;;;;;;;11.15;7.53;;;;;;;;;;5053308;28;20032;-74
2023/09/07 11:27:11;;;;;;;11.68;7.32;;;;;;;;;;5054322;28;20021;-75
2023/09/07 11:29:39;;;;;;;11.57;7.78;;;;;;;;;;5051919;28;20144;-74
2023/09/07 11:32:08;;;;;;;9.45;8.10;;;;;;;;;;5054869;28;20475;-75
2023/09/07 11:34:34;;;;;;;12.88;7.38;;;;;;;;;;5052758;28;20487;-75
2023/09/07 11:36:59;;;;;;;10.80;7.32;;;;;;;;;;5053228;28;20112;-75
2023/09/07 11:39:24;;;;;;;11.50;7.47;;;;;;;;;;5036564;28;20482;-75
2023/09/07 11:41:49;;;;;;;10.27;8.13;;;;;;;;;;5054018;28;20111;-75
2023/09/07 11:44:15;;;;;;;11.77;7.45;;;;;;;;;;5052945;28;20036;-76
2023/09/07 11:46:40;;;;;;;8.68;7.38;;;;;;;;;;5036203;28;20032;-75
2023/09/07 11:49:05;;;;;;;11.40;7.57;;;;;;;;;;5053159;28;20063;-76
2023/09/07 11:51:31;;;;;;;8.07;6.38;;;;;;;;;;5054562;28;20402;-77
2023/09/07 11:53:56;;;;;;;10.05;7.78;;;;;;;;;;5036622;28;20060;-76
2023/09/07 11:56:22;;;;;;;10.38;7.43;;;;;;;;;;5052346;28;20029;-76
2023/09/07 11:58:47;;;;;;;10.23;7.28;;;;;;;;;;5052638;28;20036;-76
2023/09/07 12:01:16;;;;;;;11.10;6.88;;;;;;;;;;5053070;28;20021;-76
2023/09/07 12:03:41;;;;;;;11.65;7.70;;;;;;;;;;5052983;28;20091;-76
2023/09/07 12:06:06;;;;;;;11.02;8.27;;;;;;;;;;5052822;28;20475;-76
2023/09/07 12:08:32;;;;;;;10.57;7.00;;;;;;;;;;5035923;28;20060;-76
2023/09/07 12:10:57;;;;;;;10.10;8.73;;;;;;;;;;5053090;28;20013;-76
2023/09/07 12:13:22;;;;;;;8.52;7.45;;;;;;;;;;5052112;28;20048;-76
2023/09/07 12:15:48;;;;;;;11.90;7.80;;;;;;;;;;5052339;28;20029;-76
2023/09/07 12:18:13;;;;;;;8.85;7.07;;;;;;;;;;5052393;28;20095;-76
2023/09/07 12:20:38;;;;;;;9.98;7.15;;;;;;;;;;5052947;28;20517;-75
2023/09/07 12:23:04;;;;;;;10.40;8.18;;;;;;;;;;5052424;28;20025;-76
2023/09/07 12:25:29;;;;;;;11.30;8.32;;;;;;;;;;5052107;28;20027;-76
2023/09/07 12:27:56;;;;;;;11.07;8.45;;;;;;;;;;5052225;28;20025;-76
2023/09/07 12:30:23;;;;;;;8.80;6.78;;;;;;;;;;5053308;28;20425;-75
2023/09/07 12:32:49;;;;;;;10.23;7.78;;;;;;;;;;5051630;28;20032;-75
2023/09/07 12:35:15;;;;;;;11.00;7.97;;;;;;;;;;5051925;28;20075;-74
2023/09/07 12:37:40;;;;;;;12.00;9.05;;;;;;;;;;5052349;28;20437;-73
2023/09/07 12:40:11;;;;;;;11.93;8.75;;;;;;;;;;5055830;28;20013;-74
2023/09/07 12:42:37;;;;;;;11.88;8.45;;;;;;;;;;5057108;28;20557;-74
2023/09/07 12:45:04;;;;;;;11.45;8.75;;;;;;;;;;5057143;28;20375;-74
2023/09/07 12:47:29;;;;;;;14.93;8.32;;;;;;;;;;5057344;28;20028;-74
2023/09/07 12:49:56;;;;;;;11.90;7.97;;;;;;;;;;5056317;28;20028;-74
2023/09/07 12:52:21;;;;;;;12.27;9.10;;;;;;;;;;5056765;28;20383;-74
2023/09/07 12:54:46;;;;;;;10.10;8.52;;;;;;;;;;5057294;28;20025;-74
2023/09/07 12:57:12;;;;;;;9.27;7.30;;;;;;;;;;5056251;28;20020;-74
2023/09/07 12:59:37;;;;;;;11.60;8.40;;;;;;;;;;5056556;28;20024;-74
2023/09/07 13:02:03;;;;;;;13.95;8.50;;;;;;;;;;5055632;28;20179;-72
2023/09/07 13:04:28;;;;;;;12.85;9.52;;;;;;;;;;5055802;28;20029;-73
2023/09/07 13:06:53;;;;;;;10.82;8.85;;;;;;;;;;5054300;28;20025;-74
2023/09/07 13:09:19;;;;;;;12.95;9.27;;;;;;;;;;5030782;28;20441;-74
2023/09/07 13:11:44;;;;;;;9.90;8.00;;;;;;;;;;5055109;28;20112;-74
2023/09/07 13:14:09;;;;;;;13.30;9.43;;;;;;;;;;5055088;28;20544;-74
2023/09/07 13:16:34;;;;;;;11.05;8.73;;;;;;;;;;5054554;28;20052;-76
2023/09/07 13:19:00;;;;;;;12.02;8.48;;;;;;;;;;5055231;28;20033;-74
2023/09/07 13:21:25;;;;;;;10.75;7.57;;;;;;;;;;5050788;28;20021;-75
2023/09/07 13:23:50;;;;;;;11.63;8.93;;;;;;;;;;5054900;28;20076;-75
2023/09/07 13:26:16;;;;;;;12.63;8.55;;;;;;;;;;5056507;28;20505;-74
2023/09/07 13:28:41;;;;;;;11.55;9.02;;;;;;;;;;5053147;28;20017;-74
2023/09/07 13:31:06;;;;;;;14.02;9.18;;;;;;;;;;5056301;28;20021;-74
2023/09/07 13:33:32;;;;;;;9.35;7.45;;;;;;;;;;5054673;28;20021;-74
2023/09/07 13:35:57;;;;;;;13.60;8.65;;;;;;;;;;5055187;28;20029;-74
2023/09/07 13:38:22;;;;;;;9.82;8.70;;;;;;;;;;5053247;28;20029;-75
2023/09/07 13:40:48;;;;;;;16.63;8.50;;;;;;;;;;5054696;28;20098;-74
2023/09/07 13:43:13;;;;;;;10.80;8.77;;;;;;;;;;5055169;28;20025;-74
2023/09/07 13:45:38;;;;;;;11.80;9.25;;;;;;;;;;5055433;28;20429;-74
2023/09/07 13:48:04;;;;;;;12.15;8.27;;;;;;;;;;5055146;28;20052;-73
2023/09/07 13:50:29;;;;;;;13.63;8.30;;;;;;;;;;5052099;28;20047;-73
2023/09/07 13:52:55;;;;;;;11.98;8.23;;;;;;;;;;5054111;28;20025;-74
2023/09/07 13:55:21;;;;;;;12.80;8.68;;;;;;;;;;5054109;28;20036;-73
2023/09/07 13:57:47;;;;;;;10.00;8.38;;;;;;;;;;5053013;28;20029;-74
2023/09/07 14:00:13;;;;;;;13.35;9.70;;;;;;;;;;5054668;28;20408;-74
2023/09/07 14:02:38;;;;;;;13.98;8.35;;;;;;;;;;5070744;28;20029;-74
2023/09/07 14:05:04;;;;;;;11.85;9.45;;;;;;;;;;5054721;28;20020;-74
2023/09/07 14:07:30;;;;;;;10.80;7.55;;;;;;;;;;5054563;28;20027;-74
2023/09/07 14:09:55;;;;;;;11.90;9.10;;;;;;;;;;5054516;28;20475;-74
2023/09/07 14:12:21;;;;;;;14.45;9.50;;;;;;;;;;5054887;28;20474;-74
2023/09/07 14:14:47;;;;;;;12.13;9.38;;;;;;;;;;5053661;28;20485;-74
2023/09/07 14:17:12;;;;;;;10.60;8.25;;;;;;;;;;5054557;28;20024;-74
2023/09/07 14:19:37;;;;;;;12.98;8.30;;;;;;;;;;5055825;28;20036;-74
2023/09/07 14:22:03;;;;;;;14.57;9.27;;;;;;;;;;5041924;28;20083;-74